createdAt,value
2023-04-02T00:01:45.546Z,8.27
2023-04-02T00:05:16.812Z,8.48
2023-04-02T00:08:22.654Z,8.40
2023-04-02T00:11:37.894Z,8.38
2023-04-02T00:14:40.135Z,8.28
2023-04-02T00:17:42.114Z,8.16
2023-04-02T00:21:19.166Z,8.04
2023-04-02T00:24:22.408Z,8.26
2023-04-02T00:27:24.599Z,8.21
2023-04-02T00:30:26.967Z,7.95
2023-04-02T00:33:31.710Z,8.07
2023-04-02T00:36:35.152Z,8.20
2023-04-02T00:39:41.698Z,8.15
2023-04-02T00:42:45.116Z,8.16
2023-04-02T00:45:51.240Z,8.15
2023-04-02T00:48:56.493Z,8.21
2023-04-02T00:52:21.633Z,8.18
2023-04-02T00:55:50.646Z,8.11
2023-04-02T00:58:55.118Z,8.00
2023-04-02T01:02:22.697Z,7.92
2023-04-02T01:05:25.048Z,7.89
2023-04-02T01:08:56.814Z,7.85
2023-04-02T01:12:13.918Z,7.98
2023-04-02T01:15:21.644Z,7.91
2023-04-02T01:18:53.675Z,8.12
2023-04-02T01:22:14.430Z,8.15
2023-04-02T01:25:35.894Z,8.14
2023-04-02T01:29:10.856Z,7.96
2023-04-02T01:32:17.002Z,7.90
2023-04-02T01:35:19.366Z,7.84
2023-04-02T01:38:29.991Z,8.13
2023-04-02T01:41:48.082Z,7.84
2023-04-02T01:45:00.922Z,8.06
2023-04-02T01:48:12.966Z,7.95
2023-04-02T01:51:35.300Z,7.93
2023-04-02T01:54:41.880Z,7.86
2023-04-02T01:57:50.078Z,7.98
2023-04-02T02:01:02.904Z,8.00
2023-04-02T02:04:07.508Z,8.00
2023-04-02T02:07:18.804Z,7.92
2023-04-02T02:10:28.903Z,7.90
2023-04-02T02:13:32.177Z,7.91
2023-04-02T02:16:42.383Z,7.88
2023-04-02T02:19:52.224Z,7.81
2023-04-02T02:22:56.549Z,7.98
2023-04-02T02:25:59.021Z,8.01
2023-04-02T02:29:04.232Z,7.91
2023-04-02T02:32:09.821Z,7.81
2023-04-02T02:35:21.945Z,8.10
2023-04-02T02:38:34.770Z,7.94
2023-04-02T02:41:50.441Z,7.98
2023-04-02T02:44:55.957Z,8.04
2023-04-02T02:47:59.921Z,7.90
2023-04-02T02:51:08.028Z,7.92
2023-04-02T02:54:10.672Z,7.99
2023-04-02T02:57:20.853Z,7.95
2023-04-02T03:00:25.472Z,7.83
2023-04-02T03:03:32.826Z,7.76
2023-04-02T03:06:37.178Z,7.47
2023-04-02T03:10:06.416Z,7.65
2023-04-02T03:13:23.435Z,7.72
2023-04-02T03:16:36.934Z,7.69
2023-04-02T03:19:53.534Z,7.57
2023-04-02T03:23:22.324Z,7.53
2023-04-02T03:27:02.297Z,7.78
2023-04-02T03:30:28.874Z,7.80
2023-04-02T03:34:00.217Z,7.65
2023-04-02T03:37:21.568Z,7.56
2023-04-02T03:40:34.107Z,7.53
2023-04-02T03:43:47.232Z,7.50
2023-04-02T03:46:57.837Z,7.49
2023-04-02T03:50:15.098Z,7.68
2023-04-02T03:53:17.375Z,7.56
2023-04-02T03:56:27.691Z,7.74
2023-04-02T03:59:41.726Z,7.77
2023-04-02T04:02:50.884Z,7.68
2023-04-02T04:06:05.925Z,7.42
2023-04-02T04:09:10.291Z,7.72
2023-04-02T04:12:32.912Z,7.78
2023-04-02T04:15:42.252Z,7.87
2023-04-02T04:18:53.150Z,7.76
2023-04-02T04:22:15.386Z,7.87
2023-04-02T04:25:33.940Z,7.80
2023-04-02T04:28:58.674Z,7.85
2023-04-02T04:32:32.595Z,7.75
2023-04-02T04:35:48.577Z,7.55
2023-04-02T04:38:55.832Z,7.85
2023-04-02T04:42:02.853Z,7.80
2023-04-02T04:45:24.057Z,7.76
2023-04-02T04:48:48.380Z,7.76
2023-04-02T04:52:14.854Z,7.71
2023-04-02T04:55:38.860Z,7.79
2023-04-02T04:58:48.796Z,7.85
2023-04-02T05:02:27.302Z,7.85
2023-04-02T05:05:34.148Z,7.92
2023-04-02T05:08:44.607Z,8.07
2023-04-02T05:11:55.879Z,7.84
2023-04-02T05:15:04.714Z,8.00
2023-04-02T05:18:33.223Z,8.05
2023-04-02T05:21:49.842Z,8.07
2023-04-02T05:25:27.542Z,8.01
2023-04-02T05:28:47.663Z,8.00
2023-04-02T05:32:13.970Z,8.01
2023-04-02T05:35:22.878Z,8.00
2023-04-02T05:38:32.357Z,7.98
2023-04-02T05:41:43.292Z,7.97
2023-04-02T05:45:23.369Z,8.00
2023-04-02T05:48:35.554Z,8.03
2023-04-02T05:51:50.519Z,8.04
2023-04-02T05:54:58.838Z,8.06
2023-04-02T06:01:56.340Z,8.22
2023-04-02T06:05:13.777Z,8.41
2023-04-02T06:08:22.884Z,7.96
2023-04-02T06:11:37.260Z,8.22
2023-04-02T06:14:40.165Z,8.15
2023-04-02T06:17:51.577Z,8.30
2023-04-02T06:20:54.976Z,8.23
2023-04-02T06:24:02.592Z,8.41
2023-04-02T06:27:09.034Z,8.55
2023-04-02T06:30:19.384Z,8.40
2023-04-02T06:33:24.141Z,8.44
2023-04-02T06:36:28.735Z,8.46
2023-04-02T06:39:36.453Z,8.27
2023-04-02T06:42:44.517Z,8.39
2023-04-02T06:46:35.768Z,8.41
2023-04-02T06:49:59.418Z,8.56
2023-04-02T06:53:08.572Z,8.65
2023-04-02T06:56:43.533Z,8.51
2023-04-02T06:59:49.181Z,8.49
2023-04-02T07:02:56.429Z,8.59
2023-04-02T07:06:02.268Z,8.90
2023-04-02T07:09:05.510Z,8.80
2023-04-02T07:12:15.593Z,8.83
2023-04-02T07:15:20.344Z,8.80
2023-04-02T07:18:25.303Z,8.87
2023-04-02T07:21:27.923Z,9.09
2023-04-02T07:24:30.917Z,9.01
2023-04-02T07:27:32.879Z,8.78
2023-04-02T07:30:35.609Z,9.01
2023-04-02T07:33:37.693Z,9.27
2023-04-02T07:36:39.772Z,9.19
2023-04-02T07:39:42.465Z,9.26
2023-04-02T07:42:45.493Z,9.27
2023-04-02T07:45:47.653Z,9.34
2023-04-02T07:48:49.750Z,9.36
2023-04-02T07:51:52.761Z,9.51
2023-04-02T07:54:55.245Z,9.38
2023-04-02T07:57:59.835Z,9.36
2023-04-02T08:01:03.911Z,9.56
2023-04-02T08:04:08.542Z,9.42
2023-04-02T08:07:11.055Z,9.32
2023-04-02T08:10:13.389Z,9.29
2023-04-02T08:13:16.724Z,9.34
2023-04-02T08:16:18.857Z,9.40
2023-04-02T08:19:21.113Z,9.44
2023-04-02T08:22:23.164Z,9.50
2023-04-02T08:25:25.232Z,9.59
2023-04-02T08:28:27.297Z,9.52
2023-04-02T08:31:30.609Z,9.29
2023-04-02T08:34:32.727Z,9.38
2023-04-02T08:37:34.826Z,9.37
2023-04-02T08:40:39.830Z,9.43
2023-04-02T08:44:07.268Z,9.51
2023-04-02T08:47:11.110Z,9.66
2023-04-02T08:50:30.391Z,9.37
2023-04-02T08:53:39.376Z,9.24
2023-04-02T08:56:48.264Z,9.37
2023-04-02T08:59:57.223Z,9.29
2023-04-02T09:03:06.901Z,9.21
2023-04-02T09:06:14.698Z,9.32
2023-04-02T09:09:18.780Z,9.47
2023-04-02T09:12:26.449Z,9.63
2023-04-02T09:15:36.187Z,9.62
2023-04-02T09:18:39.683Z,9.57
2023-04-02T09:21:53.140Z,9.80
2023-04-02T09:24:57.666Z,10.06
2023-04-02T09:28:06.407Z,9.98
2023-04-02T09:31:43.559Z,9.83
2023-04-02T09:34:45.905Z,9.57
2023-04-02T09:37:48.510Z,9.52
2023-04-02T09:40:55.898Z,9.20
2023-04-02T09:44:27.378Z,8.97
2023-04-02T09:47:32.342Z,8.83
2023-04-02T09:50:35.037Z,9.04
2023-04-02T09:53:42.303Z,8.76
2023-04-02T09:57:04.878Z,8.65
2023-04-02T10:00:32.171Z,8.49
2023-04-02T10:03:35.284Z,8.45
2023-04-02T10:06:37.604Z,8.49
2023-04-02T10:09:39.745Z,8.57
2023-04-02T10:12:44.101Z,8.49
2023-04-02T10:15:54.490Z,8.82
2023-04-02T10:19:07.294Z,8.89
2023-04-02T10:22:23.203Z,9.07
2023-04-02T10:25:31.342Z,9.05
2023-04-02T10:29:08.770Z,9.19
2023-04-02T10:32:13.584Z,9.27
2023-04-02T10:35:33.391Z,9.22
2023-04-02T10:38:51.415Z,9.30
2023-04-02T10:42:00.914Z,9.43
2023-04-02T10:45:14.056Z,9.55
2023-04-02T10:48:34.171Z,9.75
2023-04-02T10:51:44.822Z,9.86
2023-04-02T10:54:59.279Z,10.00
2023-04-02T10:58:08.081Z,10.19
2023-04-02T11:01:17.896Z,9.91
2023-04-02T11:04:45.227Z,10.13
2023-04-02T11:11:19.526Z,10.41
2023-04-02T11:14:26.587Z,10.50
2023-04-02T11:17:29.122Z,10.42
2023-04-02T11:20:49.402Z,10.56
2023-04-02T11:23:59.051Z,10.18
2023-04-02T11:27:10.031Z,10.28
2023-04-02T11:30:18.969Z,10.38
2023-04-02T11:33:38.121Z,10.34
2023-04-02T11:36:51.073Z,10.09
2023-04-02T11:39:58.488Z,10.01
2023-04-02T11:43:37.173Z,10.03
2023-04-02T11:46:41.691Z,10.07
2023-04-02T11:50:04.648Z,10.19
2023-04-02T11:53:13.188Z,9.94
2023-04-02T11:56:43.561Z,9.81
2023-04-02T11:59:58.650Z,9.71
2023-04-02T12:03:26.145Z,9.64
2023-04-02T12:06:49.779Z,9.62
2023-04-02T12:09:55.682Z,9.72
2023-04-02T12:12:57.949Z,9.74
2023-04-02T12:16:00.086Z,9.27
2023-04-02T12:19:08.314Z,9.07
2023-04-02T12:22:20.553Z,8.91
2023-04-02T12:25:41.382Z,8.83
2023-04-02T12:28:47.002Z,8.86
2023-04-02T12:31:49.457Z,8.64
2023-04-02T12:34:53.696Z,8.60
2023-04-02T12:37:57.462Z,8.55
2023-04-02T12:41:18.951Z,8.12
2023-04-02T12:44:24.124Z,7.92
2023-04-02T12:47:27.342Z,7.70
2023-04-02T12:50:29.761Z,7.85
2023-04-02T12:53:36.586Z,7.81
2023-04-02T12:56:39.082Z,7.80
2023-04-02T12:59:43.238Z,7.73
2023-04-02T13:02:48.426Z,7.63
2023-04-02T13:05:56.431Z,7.57
2023-04-02T13:09:00.575Z,7.43
2023-04-02T13:12:04.012Z,7.60
2023-04-02T13:15:09.248Z,7.53
2023-04-02T13:18:14.445Z,7.50
2023-04-02T13:21:19.765Z,7.46
2023-04-02T13:24:24.741Z,7.18
2023-04-02T13:27:26.979Z,7.36
2023-04-02T13:30:29.518Z,7.28
2023-04-02T13:33:31.930Z,7.15
2023-04-02T13:36:34.153Z,7.15
2023-04-02T13:39:36.259Z,7.16
2023-04-02T13:42:39.172Z,7.19
2023-04-02T13:45:43.044Z,7.15
2023-04-02T13:48:45.046Z,7.15
2023-04-02T13:51:58.439Z,7.02
2023-04-02T13:55:01.851Z,6.91
2023-04-02T13:58:05.319Z,6.92
2023-04-02T14:01:08.001Z,7.03
2023-04-02T14:04:14.282Z,7.17
2023-04-02T14:07:34.716Z,7.16
2023-04-02T14:11:17.772Z,7.24
2023-04-02T14:14:29.416Z,7.31
2023-04-02T14:17:55.702Z,7.47
2023-04-02T14:21:12.530Z,7.57
2023-04-02T14:24:26.878Z,7.85
2023-04-02T14:27:53.833Z,7.92
2023-04-02T14:31:07.190Z,7.92
2023-04-02T14:34:42.128Z,7.81
2023-04-02T14:38:37.730Z,7.65
2023-04-02T14:41:58.450Z,7.55
2023-04-02T14:45:33.932Z,7.50
2023-04-02T14:48:46.558Z,7.36
2023-04-02T14:52:05.420Z,7.21
2023-04-02T14:55:40.933Z,7.23
2023-04-02T14:58:48.701Z,7.21
2023-04-02T15:01:59.028Z,6.76
2023-04-02T15:05:12.364Z,5.69
2023-04-02T15:08:52.364Z,7.07
2023-04-02T15:12:18.002Z,6.30
2023-04-02T15:15:40.584Z,7.05
2023-04-02T15:18:43.887Z,7.14
2023-04-02T15:21:59.864Z,7.24
2023-04-02T15:25:16.869Z,7.18
2023-04-02T15:28:38.821Z,5.91
2023-04-02T15:31:46.796Z,7.22
2023-04-02T15:34:59.314Z,7.13
2023-04-02T15:38:19.878Z,7.16
2023-04-02T15:41:47.717Z,5.88
2023-04-02T15:45:42.733Z,6.88
2023-04-02T15:49:09.758Z,7.10
2023-04-02T15:52:33.507Z,5.58
2023-04-02T15:56:16.981Z,4.94
2023-04-02T15:59:41.118Z,5.16
2023-04-02T16:03:04.940Z,6.96
2023-04-02T16:06:27.246Z,6.96
2023-04-02T16:09:43.242Z,5.49
2023-04-02T16:12:45.957Z,4.96
2023-04-02T16:16:00.296Z,5.28
2023-04-02T16:19:15.992Z,6.79
2023-04-02T16:22:34.342Z,6.76
2023-04-02T16:25:49.171Z,6.33
2023-04-02T16:29:23.793Z,6.24
2023-04-02T16:32:48.508Z,6.71
2023-04-02T16:36:36.213Z,6.58
2023-04-02T16:40:08.239Z,5.68
2023-04-02T16:43:20.184Z,6.55
2023-04-02T16:46:57.309Z,4.80
2023-04-02T16:50:19.808Z,6.43
2023-04-02T16:53:50.973Z,5.36
2023-04-02T16:57:38.495Z,6.23
2023-04-02T17:01:06.386Z,6.09
2023-04-02T17:04:18.321Z,6.04
2023-04-02T17:07:48.426Z,4.81
2023-04-02T17:10:53.681Z,4.21
2023-04-02T17:14:14.079Z,4.10
2023-04-02T17:17:18.103Z,3.69
2023-04-02T17:20:24.596Z,5.98
2023-04-02T17:23:31.970Z,5.89
2023-04-02T17:26:38.791Z,5.86
2023-04-02T17:29:46.068Z,5.79
2023-04-02T17:32:49.378Z,5.85
2023-04-02T17:36:16.275Z,4.64
2023-04-02T17:40:11.843Z,5.68
2023-04-02T17:43:48.128Z,4.94
2023-04-02T17:47:15.936Z,4.13
2023-04-02T17:50:22.070Z,5.29
2023-04-02T17:53:51.937Z,5.20
2023-04-02T17:57:27.959Z,5.11
2023-04-02T18:00:59.241Z,5.02
2023-04-02T18:04:29.274Z,4.55
2023-04-02T18:08:02.327Z,3.22
2023-04-02T18:11:15.892Z,4.96
2023-04-02T18:14:31.612Z,4.97
2023-04-02T18:17:46.842Z,4.22
2023-04-02T18:21:17.522Z,4.44
2023-04-02T18:24:48.159Z,4.20
2023-04-02T18:28:38.103Z,4.29
2023-04-02T18:31:53.210Z,4.53
2023-04-02T18:35:06.223Z,4.28
2023-04-02T18:38:44.114Z,4.53
2023-04-02T18:42:00.002Z,4.17
2023-04-02T18:45:33.983Z,4.41
2023-04-02T18:49:19.179Z,4.35
2023-04-02T18:52:23.947Z,4.02
2023-04-02T18:55:32.982Z,3.71
2023-04-02T18:58:59.307Z,4.36
2023-04-02T19:02:34.006Z,3.91
2023-04-02T19:05:53.083Z,3.73
2023-04-02T19:09:03.684Z,3.88
2023-04-02T19:12:26.999Z,3.21
2023-04-02T19:16:08.241Z,3.06
2023-04-02T19:19:38.834Z,3.69
2023-04-02T19:23:30.607Z,4.05
2023-04-02T19:27:05.429Z,3.98
2023-04-02T19:30:36.097Z,3.93
2023-04-02T19:33:53.376Z,3.25
2023-04-02T19:37:18.844Z,3.61
2023-04-02T19:40:29.878Z,3.69
2023-04-02T19:43:33.096Z,3.73
2023-04-02T19:46:37.025Z,3.43
2023-04-02T19:49:40.336Z,3.31
2023-04-02T19:52:43.726Z,3.05
2023-04-02T19:55:52.386Z,3.76
2023-04-02T19:59:02.416Z,3.69
2023-04-02T20:02:11.751Z,2.79
2023-04-02T20:05:15.401Z,3.38
2023-04-02T20:08:19.178Z,3.42
2023-04-02T20:11:22.334Z,2.98
2023-04-02T20:14:25.581Z,3.34
2023-04-02T20:17:29.057Z,2.85
2023-04-02T20:20:31.734Z,2.54
2023-04-02T20:23:35.101Z,3.61
2023-04-02T20:26:40.439Z,2.83
2023-04-02T20:29:43.757Z,2.08
2023-04-02T20:32:46.188Z,2.88
2023-04-02T20:35:52.329Z,2.66
2023-04-02T20:38:57.952Z,3.51
2023-04-02T20:42:03.065Z,2.74
2023-04-02T20:45:06.799Z,2.91
2023-04-02T20:48:09.189Z,2.93
2023-04-02T20:51:15.914Z,3.48
2023-04-02T20:54:17.968Z,2.79
2023-04-02T20:57:22.048Z,2.85
2023-04-02T21:00:24.221Z,2.99
2023-04-02T21:03:26.251Z,2.90
2023-04-02T21:06:31.882Z,3.13
2023-04-02T21:09:33.866Z,0.65
2023-04-02T21:12:36.008Z,2.38
2023-04-02T21:15:43.137Z,3.09
2023-04-02T21:18:46.864Z,3.60
2023-04-02T21:21:48.949Z,2.99
2023-04-02T21:24:51.472Z,3.15
2023-04-02T21:27:53.471Z,2.92
2023-04-02T21:31:13.674Z,3.02
2023-04-02T21:34:17.157Z,2.81
2023-04-02T21:37:19.137Z,2.67
2023-04-02T21:40:21.209Z,2.85
2023-04-02T21:43:23.210Z,2.46
2023-04-02T21:46:31.349Z,3.05
2023-04-02T21:49:33.337Z,2.92
2023-04-02T21:52:35.392Z,3.03
2023-04-02T21:55:37.384Z,2.46
2023-04-02T21:58:39.589Z,2.56
2023-04-02T22:01:48.431Z,3.29
2023-04-02T22:04:52.113Z,2.70
2023-04-02T22:07:54.321Z,2.76
2023-04-02T22:10:56.549Z,2.45
2023-04-02T22:13:59.108Z,3.24
2023-04-02T22:17:01.585Z,1.86
2023-04-02T22:20:05.093Z,3.30
2023-04-02T22:23:07.160Z,3.29
2023-04-02T22:26:10.771Z,3.35
2023-04-02T22:29:12.850Z,3.12
2023-04-02T22:32:14.991Z,3.24
2023-04-02T22:35:17.423Z,2.95
2023-04-02T22:38:19.568Z,2.48
2023-04-02T22:41:25.778Z,3.20
2023-04-02T22:44:27.881Z,2.64
2023-04-02T22:47:29.877Z,1.43
2023-04-02T22:50:32.222Z,1.18
2023-04-02T22:53:35.098Z,2.87
2023-04-02T22:56:37.828Z,2.02
2023-04-02T22:59:39.848Z,2.77
2023-04-02T23:02:41.998Z,3.14
2023-04-02T23:05:46.227Z,1.47
2023-04-02T23:08:48.402Z,1.57
2023-04-02T23:11:50.600Z,2.86
2023-04-02T23:14:53.414Z,3.20
2023-04-02T23:17:55.780Z,1.24
2023-04-02T23:20:58.164Z,2.55
2023-04-02T23:24:00.399Z,2.49
2023-04-02T23:27:02.536Z,2.77
2023-04-02T23:30:05.561Z,2.76
2023-04-02T23:33:07.682Z,2.24
2023-04-02T23:36:13.734Z,2.25
2023-04-02T23:39:17.208Z,2.88
2023-04-02T23:42:19.250Z,2.14
2023-04-02T23:45:21.242Z,1.97
2023-04-02T23:48:23.322Z,1.37
2023-04-02T23:51:26.770Z,3.18
2023-04-02T23:54:28.801Z,2.76
2023-04-02T23:57:31.050Z,2.53
